sensor_id;sensor_type;location;lat;lon;timestamp;P1;durP1;ratioP1;P2;durP2;ratioP2
33505;SDS011;19843;51.040;13.782;2023-11-22T00:00:52;4.95;;;4.25;;
33505;SDS011;19843;51.040;13.782;2023-11-22T00:03:19;5.43;;;4.07;;
33505;SDS011;19843;51.040;13.782;2023-11-22T00:05:47;7.93;;;4.65;;
33505;SDS011;19843;51.040;13.782;2023-11-22T00:08:14;5.35;;;3.33;;
33505;SDS011;19843;51.040;13.782;2023-11-22T00:10:42;6.38;;;4.00;;
33505;SDS011;19843;51.040;13.782;2023-11-22T00:13:10;5.28;;;3.85;;
33505;SDS011;19843;51.040;13.782;2023-11-22T00:15:38;4.82;;;3.53;;
33505;SDS011;19843;51.040;13.782;2023-11-22T00:18:07;6.55;;;4.60;;
33505;SDS011;19843;51.040;13.782;2023-11-22T00:20:34;8.05;;;4.72;;
33505;SDS011;19843;51.040;13.782;2023-11-22T00:23:02;7.60;;;4.25;;
33505;SDS011;19843;51.040;13.782;2023-11-22T00:25:30;8.45;;;4.30;;
33505;SDS011;19843;51.040;13.782;2023-11-22T00:27:58;6.80;;;4.45;;
33505;SDS011;19843;51.040;13.782;2023-11-22T00:30:26;11.25;;;6.05;;
33505;SDS011;19843;51.040;13.782;2023-11-22T00:32:54;7.68;;;5.05;;
33505;SDS011;19843;51.040;13.782;2023-11-22T00:35:24;7.22;;;4.75;;
33505;SDS011;19843;51.040;13.782;2023-11-22T00:37:52;7.00;;;4.20;;
33505;SDS011;19843;51.040;13.782;2023-11-22T00:40:19;10.00;;;4.72;;
33505;SDS011;19843;51.040;13.782;2023-11-22T00:42:47;7.45;;;4.88;;
33505;SDS011;19843;51.040;13.782;2023-11-22T00:45:14;7.13;;;4.28;;
33505;SDS011;19843;51.040;13.782;2023-11-22T00:47:42;7.50;;;4.50;;
33505;SDS011;19843;51.040;13.782;2023-11-22T00:50:09;7.88;;;4.47;;
33505;SDS011;19843;51.040;13.782;2023-11-22T00:52:38;10.98;;;5.28;;
33505;SDS011;19843;51.040;13.782;2023-11-22T00:55:10;10.05;;;5.75;;
33505;SDS011;19843;51.040;13.782;2023-11-22T00:57:39;7.88;;;5.05;;
33505;SDS011;19843;51.040;13.782;2023-11-22T01:00:07;9.40;;;6.32;;
33505;SDS011;19843;51.040;13.782;2023-11-22T01:02:37;11.65;;;6.80;;
33505;SDS011;19843;51.040;13.782;2023-11-22T01:05:05;8.80;;;5.10;;
33505;SDS011;19843;51.040;13.782;2023-11-22T01:07:38;9.02;;;5.68;;
33505;SDS011;19843;51.040;13.782;2023-11-22T01:10:06;12.35;;;6.05;;
33505;SDS011;19843;51.040;13.782;2023-11-22T01:12:34;10.75;;;5.35;;
33505;SDS011;19843;51.040;13.782;2023-11-22T01:15:02;9.52;;;5.55;;
33505;SDS011;19843;51.040;13.782;2023-11-22T01:17:32;10.50;;;6.60;;
33505;SDS011;19843;51.040;13.782;2023-11-22T01:20:00;11.57;;;6.22;;
33505;SDS011;19843;51.040;13.782;2023-11-22T01:22:29;8.88;;;5.47;;
33505;SDS011;19843;51.040;13.782;2023-11-22T01:24:58;10.18;;;5.47;;
33505;SDS011;19843;51.040;13.782;2023-11-22T01:27:27;9.52;;;5.90;;
33505;SDS011;19843;51.040;13.782;2023-11-22T01:29:54;10.85;;;6.68;;
33505;SDS011;19843;51.040;13.782;2023-11-22T01:32:23;10.00;;;5.53;;
33505;SDS011;19843;51.040;13.782;2023-11-22T01:34:50;9.70;;;5.00;;
33505;SDS011;19843;51.040;13.782;2023-11-22T01:37:18;12.07;;;5.95;;
33505;SDS011;19843;51.040;13.782;2023-11-22T01:39:46;10.75;;;5.90;;
33505;SDS011;19843;51.040;13.782;2023-11-22T01:42:16;10.43;;;6.47;;
33505;SDS011;19843;51.040;13.782;2023-11-22T01:44:43;9.80;;;7.20;;
33505;SDS011;19843;51.040;13.782;2023-11-22T01:47:11;9.70;;;5.75;;
33505;SDS011;19843;51.040;13.782;2023-11-22T01:49:39;13.10;;;7.72;;
33505;SDS011;19843;51.040;13.782;2023-11-22T01:52:06;10.55;;;6.10;;
33505;SDS011;19843;51.040;13.782;2023-11-22T01:54:34;9.20;;;5.95;;
33505;SDS011;19843;51.040;13.782;2023-11-22T01:57:02;13.18;;;7.68;;
33505;SDS011;19843;51.040;13.782;2023-11-22T01:59:35;10.48;;;6.10;;
33505;SDS011;19843;51.040;13.782;2023-11-22T02:02:03;9.57;;;6.90;;
33505;SDS011;19843;51.040;13.782;2023-11-22T02:04:31;9.77;;;5.80;;
33505;SDS011;19843;51.040;13.782;2023-11-22T02:06:58;12.70;;;6.95;;
33505;SDS011;19843;51.040;13.782;2023-11-22T02:09:26;12.45;;;6.43;;
33505;SDS011;19843;51.040;13.782;2023-11-22T02:11:53;9.52;;;5.78;;
33505;SDS011;19843;51.040;13.782;2023-11-22T02:14:21;11.88;;;6.20;;
33505;SDS011;19843;51.040;13.782;2023-11-22T02:16:50;12.13;;;7.18;;
33505;SDS011;19843;51.040;13.782;2023-11-22T02:19:17;11.10;;;6.10;;
33505;SDS011;19843;51.040;13.782;2023-11-22T02:21:46;11.85;;;6.00;;
33505;SDS011;19843;51.040;13.782;2023-11-22T02:24:15;13.43;;;5.82;;
33505;SDS011;19843;51.040;13.782;2023-11-22T02:26:45;12.57;;;7.05;;
33505;SDS011;19843;51.040;13.782;2023-11-22T02:29:13;12.57;;;7.28;;
33505;SDS011;19843;51.040;13.782;2023-11-22T02:31:41;9.63;;;6.40;;
33505;SDS011;19843;51.040;13.782;2023-11-22T02:34:09;13.82;;;6.75;;
33505;SDS011;19843;51.040;13.782;2023-11-22T02:36:37;10.30;;;5.90;;
33505;SDS011;19843;51.040;13.782;2023-11-22T02:39:04;15.40;;;7.63;;
33505;SDS011;19843;51.040;13.782;2023-11-22T02:41:34;12.65;;;6.57;;
33505;SDS011;19843;51.040;13.782;2023-11-22T02:44:01;9.85;;;6.30;;
33505;SDS011;19843;51.040;13.782;2023-11-22T02:46:29;10.32;;;5.82;;
33505;SDS011;19843;51.040;13.782;2023-11-22T02:48:57;13.05;;;5.82;;
33505;SDS011;19843;51.040;13.782;2023-11-22T02:51:25;12.18;;;7.30;;
33505;SDS011;19843;51.040;13.782;2023-11-22T02:53:53;10.77;;;6.30;;
33505;SDS011;19843;51.040;13.782;2023-11-22T02:56:21;8.30;;;4.65;;
33505;SDS011;19843;51.040;13.782;2023-11-22T02:58:50;11.65;;;5.43;;
33505;SDS011;19843;51.040;13.782;2023-11-22T03:01:17;13.25;;;6.70;;
33505;SDS011;19843;51.040;13.782;2023-11-22T03:03:45;13.38;;;6.47;;
33505;SDS011;19843;51.040;13.782;2023-11-22T03:06:21;12.13;;;5.70;;
33505;SDS011;19843;51.040;13.782;2023-11-22T03:08:50;11.30;;;6.80;;
33505;SDS011;19843;51.040;13.782;2023-11-22T03:11:18;12.00;;;6.03;;
33505;SDS011;19843;51.040;13.782;2023-11-22T03:13:46;16.27;;;7.18;;
33505;SDS011;19843;51.040;13.782;2023-11-22T03:16:16;13.70;;;6.65;;
33505;SDS011;19843;51.040;13.782;2023-11-22T03:18:44;11.48;;;6.22;;
33505;SDS011;19843;51.040;13.782;2023-11-22T03:21:12;9.30;;;5.65;;
33505;SDS011;19843;51.040;13.782;2023-11-22T03:23:40;11.85;;;6.57;;
33505;SDS011;19843;51.040;13.782;2023-11-22T03:26:08;14.60;;;7.15;;
33505;SDS011;19843;51.040;13.782;2023-11-22T03:28:36;9.30;;;5.70;;
33505;SDS011;19843;51.040;13.782;2023-11-22T03:31:04;14.18;;;7.68;;
33505;SDS011;19843;51.040;13.782;2023-11-22T03:33:35;12.75;;;6.55;;
33505;SDS011;19843;51.040;13.782;2023-11-22T03:36:03;17.15;;;7.65;;
33505;SDS011;19843;51.040;13.782;2023-11-22T03:38:32;12.20;;;5.90;;
33505;SDS011;19843;51.040;13.782;2023-11-22T03:40:59;11.38;;;6.65;;
33505;SDS011;19843;51.040;13.782;2023-11-22T03:43:27;10.27;;;6.72;;
33505;SDS011;19843;51.040;13.782;2023-11-22T03:45:55;14.18;;;6.70;;
33505;SDS011;19843;51.040;13.782;2023-11-22T03:48:22;12.45;;;7.55;;
33505;SDS011;19843;51.040;13.782;2023-11-22T03:50:53;9.80;;;5.97;;
33505;SDS011;19843;51.040;13.782;2023-11-22T03:53:21;12.13;;;6.50;;
33505;SDS011;19843;51.040;13.782;2023-11-22T03:55:49;11.70;;;6.35;;
33505;SDS011;19843;51.040;13.782;2023-11-22T03:58:17;13.20;;;6.65;;
33505;SDS011;19843;51.040;13.782;2023-11-22T04:00:44;12.40;;;6.68;;
33505;SDS011;19843;51.040;13.782;2023-11-22T04:03:12;10.98;;;6.45;;
33505;SDS011;19843;51.040;13.782;2023-11-22T04:05:40;11.68;;;6.63;;
33505;SDS011;19843;51.040;13.782;2023-11-22T04:08:09;12.02;;;5.90;;
33505;SDS011;19843;51.040;13.782;2023-11-22T04:10:37;12.52;;;6.47;;
33505;SDS011;19843;51.040;13.782;2023-11-22T04:13:05;10.35;;;6.45;;
33505;SDS011;19843;51.040;13.782;2023-11-22T04:15:33;11.07;;;5.75;;
33505;SDS011;19843;51.040;13.782;2023-11-22T04:18:00;11.07;;;5.80;;
33505;SDS011;19843;51.040;13.782;2023-11-22T04:20:28;12.70;;;6.38;;
33505;SDS011;19843;51.040;13.782;2023-11-22T04:22:56;14.00;;;7.22;;
33505;SDS011;19843;51.040;13.782;2023-11-22T04:25:25;11.50;;;6.63;;
33505;SDS011;19843;51.040;13.782;2023-11-22T04:27:53;12.80;;;7.45;;
33505;SDS011;19843;51.040;13.782;2023-11-22T04:30:20;8.70;;;4.85;;
33505;SDS011;19843;51.040;13.782;2023-11-22T04:32:48;8.50;;;5.38;;
33505;SDS011;19843;51.040;13.782;2023-11-22T04:35:16;13.35;;;6.30;;
33505;SDS011;19843;51.040;13.782;2023-11-22T04:37:43;14.52;;;7.18;;
33505;SDS011;19843;51.040;13.782;2023-11-22T04:40:13;12.10;;;6.43;;
33505;SDS011;19843;51.040;13.782;2023-11-22T04:42:42;11.43;;;6.93;;
33505;SDS011;19843;51.040;13.782;2023-11-22T04:45:10;10.65;;;6.30;;
33505;SDS011;19843;51.040;13.782;2023-11-22T04:47:39;11.77;;;6.30;;
33505;SDS011;19843;51.040;13.782;2023-11-22T04:50:07;11.98;;;6.82;;
33505;SDS011;19843;51.040;13.782;2023-11-22T04:52:35;10.82;;;7.13;;
33505;SDS011;19843;51.040;13.782;2023-11-22T04:55:02;12.07;;;6.05;;
33505;SDS011;19843;51.040;13.782;2023-11-22T04:57:30;11.90;;;6.75;;
33505;SDS011;19843;51.040;13.782;2023-11-22T04:59:59;9.25;;;5.82;;
33505;SDS011;19843;51.040;13.782;2023-11-22T05:02:29;10.52;;;6.45;;
33505;SDS011;19843;51.040;13.782;2023-11-22T05:04:57;11.82;;;6.47;;
33505;SDS011;19843;51.040;13.782;2023-11-22T05:07:24;10.85;;;6.32;;
33505;SDS011;19843;51.040;13.782;2023-11-22T05:09:52;10.45;;;6.47;;
33505;SDS011;19843;51.040;13.782;2023-11-22T05:12:20;11.85;;;5.93;;
33505;SDS011;19843;51.040;13.782;2023-11-22T05:14:49;11.05;;;6.03;;
33505;SDS011;19843;51.040;13.782;2023-11-22T05:17:18;11.65;;;5.45;;
33505;SDS011;19843;51.040;13.782;2023-11-22T05:19:46;13.00;;;6.95;;
33505;SDS011;19843;51.040;13.782;2023-11-22T05:22:13;10.13;;;6.05;;
33505;SDS011;19843;51.040;13.782;2023-11-22T05:24:41;20.42;;;6.63;;
33505;SDS011;19843;51.040;13.782;2023-11-22T05:27:08;11.98;;;5.88;;
33505;SDS011;19843;51.040;13.782;2023-11-22T05:29:36;11.13;;;6.75;;
33505;SDS011;19843;51.040;13.782;2023-11-22T05:32:15;13.18;;;7.50;;
33505;SDS011;19843;51.040;13.782;2023-11-22T05:34:44;11.10;;;6.43;;
33505;SDS011;19843;51.040;13.782;2023-11-22T05:37:12;15.40;;;7.03;;
33505;SDS011;19843;51.040;13.782;2023-11-22T05:39:39;12.80;;;6.85;;
33505;SDS011;19843;51.040;13.782;2023-11-22T05:42:07;11.00;;;6.57;;
33505;SDS011;19843;51.040;13.782;2023-11-22T05:44:35;9.65;;;5.82;;
33505;SDS011;19843;51.040;13.782;2023-11-22T05:47:02;11.48;;;6.63;;
33505;SDS011;19843;51.040;13.782;2023-11-22T05:49:30;13.05;;;7.40;;
33505;SDS011;19843;51.040;13.782;2023-11-22T05:51:59;10.60;;;6.28;;
33505;SDS011;19843;51.040;13.782;2023-11-22T05:54:26;9.52;;;5.65;;
33505;SDS011;19843;51.040;13.782;2023-11-22T05:56:56;9.88;;;5.95;;
33505;SDS011;19843;51.040;13.782;2023-11-22T05:59:23;12.43;;;6.35;;
33505;SDS011;19843;51.040;13.782;2023-11-22T06:01:51;10.38;;;5.85;;
33505;SDS011;19843;51.040;13.782;2023-11-22T06:04:18;15.13;;;6.80;;
33505;SDS011;19843;51.040;13.782;2023-11-22T06:06:46;9.70;;;6.88;;
33505;SDS011;19843;51.040;13.782;2023-11-22T06:09:15;14.00;;;7.13;;
33505;SDS011;19843;51.040;13.782;2023-11-22T06:11:42;12.98;;;7.70;;
33505;SDS011;19843;51.040;13.782;2023-11-22T06:14:10;10.90;;;6.68;;
33505;SDS011;19843;51.040;13.782;2023-11-22T06:16:38;12.13;;;7.03;;
33505;SDS011;19843;51.040;13.782;2023-11-22T06:19:05;12.27;;;7.18;;
33505;SDS011;19843;51.040;13.782;2023-11-22T06:21:33;14.13;;;7.50;;
33505;SDS011;19843;51.040;13.782;2023-11-22T06:24:02;14.05;;;7.85;;
33505;SDS011;19843;51.040;13.782;2023-11-22T06:26:33;13.32;;;8.00;;
33505;SDS011;19843;51.040;13.782;2023-11-22T06:29:01;13.68;;;6.50;;
33505;SDS011;19843;51.040;13.782;2023-11-22T06:31:29;17.25;;;8.60;;
33505;SDS011;19843;51.040;13.782;2023-11-22T06:33:56;14.93;;;7.45;;
33505;SDS011;19843;51.040;13.782;2023-11-22T06:36:26;12.25;;;6.68;;
33505;SDS011;19843;51.040;13.782;2023-11-22T06:38:54;12.23;;;6.53;;
33505;SDS011;19843;51.040;13.782;2023-11-22T06:41:22;11.82;;;6.50;;
33505;SDS011;19843;51.040;13.782;2023-11-22T06:43:50;15.27;;;7.85;;
33505;SDS011;19843;51.040;13.782;2023-11-22T06:46:17;13.13;;;7.68;;
33505;SDS011;19843;51.040;13.782;2023-11-22T06:48:45;15.32;;;7.78;;
33505;SDS011;19843;51.040;13.782;2023-11-22T06:51:15;12.88;;;7.05;;
33505;SDS011;19843;51.040;13.782;2023-11-22T06:53:44;14.05;;;7.38;;
33505;SDS011;19843;51.040;13.782;2023-11-22T06:56:12;13.75;;;7.15;;
33505;SDS011;19843;51.040;13.782;2023-11-22T06:58:40;12.38;;;7.35;;
33505;SDS011;19843;51.040;13.782;2023-11-22T07:01:09;13.68;;;8.48;;
33505;SDS011;19843;51.040;13.782;2023-11-22T07:03:41;17.42;;;8.20;;
33505;SDS011;19843;51.040;13.782;2023-11-22T07:06:09;13.80;;;7.93;;
33505;SDS011;19843;51.040;13.782;2023-11-22T07:08:36;13.02;;;7.63;;
33505;SDS011;19843;51.040;13.782;2023-11-22T07:11:04;14.93;;;7.32;;
33505;SDS011;19843;51.040;13.782;2023-11-22T07:13:36;16.55;;;9.07;;
33505;SDS011;19843;51.040;13.782;2023-11-22T07:16:04;14.13;;;8.02;;
33505;SDS011;19843;51.040;13.782;2023-11-22T07:18:34;17.70;;;7.47;;
33505;SDS011;19843;51.040;13.782;2023-11-22T07:21:04;16.38;;;8.70;;
33505;SDS011;19843;51.040;13.782;2023-11-22T07:23:31;13.35;;;7.85;;
33505;SDS011;19843;51.040;13.782;2023-11-22T07:25:59;9.82;;;6.82;;
33505;SDS011;19843;51.040;13.782;2023-11-22T07:28:27;18.75;;;8.63;;
33505;SDS011;19843;51.040;13.782;2023-11-22T07:30:55;12.05;;;6.90;;
33505;SDS011;19843;51.040;13.782;2023-11-22T07:33:23;13.65;;;7.88;;
33505;SDS011;19843;51.040;13.782;2023-11-22T07:35:53;13.80;;;7.65;;
33505;SDS011;19843;51.040;13.782;2023-11-22T07:38:21;16.58;;;8.27;;
33505;SDS011;19843;51.040;13.782;2023-11-22T07:40:49;13.52;;;7.00;;
33505;SDS011;19843;51.040;13.782;2023-11-22T07:43:18;14.35;;;7.07;;
33505;SDS011;19843;51.040;13.782;2023-11-22T07:45:47;12.82;;;7.38;;
33505;SDS011;19843;51.040;13.782;2023-11-22T07:48:15;13.93;;;7.80;;
33505;SDS011;19843;51.040;13.782;2023-11-22T07:50:42;12.93;;;7.18;;
33505;SDS011;19843;51.040;13.782;2023-11-22T07:53:14;15.93;;;8.23;;
33505;SDS011;19843;51.040;13.782;2023-11-22T07:55:44;17.10;;;7.85;;
33505;SDS011;19843;51.040;13.782;2023-11-22T07:58:11;12.63;;;6.75;;
33505;SDS011;19843;51.040;13.782;2023-11-22T08:00:40;13.85;;;6.88;;
33505;SDS011;19843;51.040;13.782;2023-11-22T08:03:08;16.70;;;7.78;;
33505;SDS011;19843;51.040;13.782;2023-11-22T08:05:36;18.90;;;7.35;;
33505;SDS011;19843;51.040;13.782;2023-11-22T08:08:06;13.32;;;6.80;;
33505;SDS011;19843;51.040;13.782;2023-11-22T08:10:36;14.52;;;7.53;;
33505;SDS011;19843;51.040;13.782;2023-11-22T08:13:03;14.60;;;7.60;;
33505;SDS011;19843;51.040;13.782;2023-11-22T08:15:32;11.48;;;6.57;;
33505;SDS011;19843;51.040;13.782;2023-11-22T08:17:59;12.93;;;6.43;;
33505;SDS011;19843;51.040;13.782;2023-11-22T08:20:27;15.43;;;7.50;;
33505;SDS011;19843;51.040;13.782;2023-11-22T08:22:57;14.90;;;7.25;;
33505;SDS011;19843;51.040;13.782;2023-11-22T08:25:24;12.32;;;7.38;;
33505;SDS011;19843;51.040;13.782;2023-11-22T08:27:53;15.23;;;7.70;;
33505;SDS011;19843;51.040;13.782;2023-11-22T08:30:21;12.98;;;7.47;;
33505;SDS011;19843;51.040;13.782;2023-11-22T08:32:49;13.60;;;7.93;;
33505;SDS011;19843;51.040;13.782;2023-11-22T08:35:21;14.77;;;8.57;;
33505;SDS011;19843;51.040;13.782;2023-11-22T08:37:50;12.32;;;7.43;;
33505;SDS011;19843;51.040;13.782;2023-11-22T08:40:17;11.48;;;7.68;;
33505;SDS011;19843;51.040;13.782;2023-11-22T08:42:47;15.90;;;7.53;;
33505;SDS011;19843;51.040;13.782;2023-11-22T08:45:16;13.05;;;6.82;;
33505;SDS011;19843;51.040;13.782;2023-11-22T08:47:43;11.90;;;6.95;;
33505;SDS011;19843;51.040;13.782;2023-11-22T08:50:12;13.63;;;7.80;;
33505;SDS011;19843;51.040;13.782;2023-11-22T08:52:41;12.98;;;7.03;;
33505;SDS011;19843;51.040;13.782;2023-11-22T08:55:11;13.85;;;7.20;;
33505;SDS011;19843;51.040;13.782;2023-11-22T08:57:41;11.82;;;7.00;;
33505;SDS011;19843;51.040;13.782;2023-11-22T09:00:08;12.60;;;7.50;;
33505;SDS011;19843;51.040;13.782;2023-11-22T09:02:39;12.77;;;6.53;;
33505;SDS011;19843;51.040;13.782;2023-11-22T09:05:07;12.93;;;7.13;;
33505;SDS011;19843;51.040;13.782;2023-11-22T09:07:36;16.17;;;9.00;;
33505;SDS011;19843;51.040;13.782;2023-11-22T09:10:05;18.95;;;8.07;;
33505;SDS011;19843;51.040;13.782;2023-11-22T09:12:37;15.10;;;7.40;;
33505;SDS011;19843;51.040;13.782;2023-11-22T09:15:07;12.25;;;7.00;;
33505;SDS011;19843;51.040;13.782;2023-11-22T09:17:40;18.13;;;8.75;;
33505;SDS011;19843;51.040;13.782;2023-11-22T09:20:10;16.00;;;6.80;;
33505;SDS011;19843;51.040;13.782;2023-11-22T09:22:41;12.98;;;6.97;;
33505;SDS011;19843;51.040;13.782;2023-11-22T09:25:14;16.83;;;8.68;;
33505;SDS011;19843;51.040;13.782;2023-11-22T09:27:42;12.75;;;6.95;;
33505;SDS011;19843;51.040;13.782;2023-11-22T09:30:13;15.13;;;8.45;;
33505;SDS011;19843;51.040;13.782;2023-11-22T09:32:47;11.75;;;6.55;;
33505;SDS011;19843;51.040;13.782;2023-11-22T09:35:14;14.55;;;7.32;;
33505;SDS011;19843;51.040;13.782;2023-11-22T09:37:42;15.75;;;6.90;;
33505;SDS011;19843;51.040;13.782;2023-11-22T09:40:11;12.27;;;5.68;;
33505;SDS011;19843;51.040;13.782;2023-11-22T09:42:43;8.77;;;5.40;;
33505;SDS011;19843;51.040;13.782;2023-11-22T09:45:16;10.25;;;4.95;;
33505;SDS011;19843;51.040;13.782;2023-11-22T09:47:47;11.82;;;6.88;;
33505;SDS011;19843;51.040;13.782;2023-11-22T09:50:17;12.48;;;4.80;;
33505;SDS011;19843;51.040;13.782;2023-11-22T09:52:49;12.63;;;6.07;;
33505;SDS011;19843;51.040;13.782;2023-11-22T09:55:18;7.45;;;5.00;;
33505;SDS011;19843;51.040;13.782;2023-11-22T09:57:48;13.88;;;4.95;;
33505;SDS011;19843;51.040;13.782;2023-11-22T10:00:17;7.13;;;4.80;;
33505;SDS011;19843;51.040;13.782;2023-11-22T10:02:49;11.80;;;5.90;;
33505;SDS011;19843;51.040;13.782;2023-11-22T10:05:17;10.48;;;5.80;;
33505;SDS011;19843;51.040;13.782;2023-11-22T10:07:46;10.73;;;5.32;;
33505;SDS011;19843;51.040;13.782;2023-11-22T10:10:15;7.82;;;4.93;;
33505;SDS011;19843;51.040;13.782;2023-11-22T10:12:42;9.43;;;5.00;;
33505;SDS011;19843;51.040;13.782;2023-11-22T10:15:10;8.25;;;4.60;;
33505;SDS011;19843;51.040;13.782;2023-11-22T10:17:39;9.20;;;4.78;;
33505;SDS011;19843;51.040;13.782;2023-11-22T10:20:08;9.32;;;4.80;;
33505;SDS011;19843;51.040;13.782;2023-11-22T10:22:43;8.02;;;4.32;;
33505;SDS011;19843;51.040;13.782;2023-11-22T10:25:12;9.98;;;5.55;;
33505;SDS011;19843;51.040;13.782;2023-11-22T10:27:40;9.93;;;4.57;;
33505;SDS011;19843;51.040;13.782;2023-11-22T10:30:08;8.90;;;5.13;;
33505;SDS011;19843;51.040;13.782;2023-11-22T10:32:37;10.90;;;5.25;;
33505;SDS011;19843;51.040;13.782;2023-11-22T10:35:05;7.25;;;4.45;;
33505;SDS011;19843;51.040;13.782;2023-11-22T10:37:35;6.30;;;4.70;;
33505;SDS011;19843;51.040;13.782;2023-11-22T10:40:02;10.48;;;5.63;;
33505;SDS011;19843;51.040;13.782;2023-11-22T10:42:33;10.18;;;4.93;;
33505;SDS011;19843;51.040;13.782;2023-11-22T10:45:00;7.82;;;4.45;;
33505;SDS011;19843;51.040;13.782;2023-11-22T10:47:29;8.48;;;4.50;;
33505;SDS011;19843;51.040;13.782;2023-11-22T10:49:57;7.65;;;4.78;;
33505;SDS011;19843;51.040;13.782;2023-11-22T10:52:27;6.97;;;3.63;;
33505;SDS011;19843;51.040;13.782;2023-11-22T10:55:01;5.45;;;4.30;;
33505;SDS011;19843;51.040;13.782;2023-11-22T10:57:31;6.07;;;3.83;;
33505;SDS011;19843;51.040;13.782;2023-11-22T11:00:01;9.30;;;4.25;;
33505;SDS011;19843;51.040;13.782;2023-11-22T11:02:35;6.57;;;3.78;;
33505;SDS011;19843;51.040;13.782;2023-11-22T11:05:10;9.88;;;5.47;;
33505;SDS011;19843;51.040;13.782;2023-11-22T11:07:48;7.32;;;4.10;;
33505;SDS011;19843;51.040;13.782;2023-11-22T11:10:22;8.57;;;4.28;;
33505;SDS011;19843;51.040;13.782;2023-11-22T11:12:51;6.32;;;4.25;;
33505;SDS011;19843;51.040;13.782;2023-11-22T11:15:20;7.30;;;4.43;;
33505;SDS011;19843;51.040;13.782;2023-11-22T11:17:49;9.05;;;4.55;;
33505;SDS011;19843;51.040;13.782;2023-11-22T11:20:17;8.38;;;4.88;;
33505;SDS011;19843;51.040;13.782;2023-11-22T11:22:49;9.32;;;4.72;;
33505;SDS011;19843;51.040;13.782;2023-11-22T11:25:19;7.25;;;4.30;;
33505;SDS011;19843;51.040;13.782;2023-11-22T11:27:58;7.05;;;3.92;;
33505;SDS011;19843;51.040;13.782;2023-11-22T11:30:42;10.02;;;5.60;;
33505;SDS011;19843;51.040;13.782;2023-11-22T11:33:14;8.38;;;4.82;;
33505;SDS011;19843;51.040;13.782;2023-11-22T11:35:46;5.90;;;3.95;;
33505;SDS011;19843;51.040;13.782;2023-11-22T11:38:15;7.90;;;4.32;;
33505;SDS011;19843;51.040;13.782;2023-11-22T11:40:49;10.23;;;4.88;;
33505;SDS011;19843;51.040;13.782;2023-11-22T11:43:22;8.27;;;4.30;;
33505;SDS011;19843;51.040;13.782;2023-11-22T11:46:07;7.07;;;3.80;;
33505;SDS011;19843;51.040;13.782;2023-11-22T11:48:35;9.82;;;4.97;;
33505;SDS011;19843;51.040;13.782;2023-11-22T11:51:03;9.93;;;4.72;;
33505;SDS011;19843;51.040;13.782;2023-11-22T11:53:33;6.60;;;4.22;;
33505;SDS011;19843;51.040;13.782;2023-11-22T11:56:01;7.18;;;3.95;;
33505;SDS011;19843;51.040;13.782;2023-11-22T11:58:30;6.47;;;4.13;;
33505;SDS011;19843;51.040;13.782;2023-11-22T12:00:58;6.85;;;4.43;;
33505;SDS011;19843;51.040;13.782;2023-11-22T12:03:26;7.80;;;4.32;;
33505;SDS011;19843;51.040;13.782;2023-11-22T12:05:53;5.55;;;3.83;;
33505;SDS011;19843;51.040;13.782;2023-11-22T12:08:21;6.38;;;4.30;;
33505;SDS011;19843;51.040;13.782;2023-11-22T12:10:49;5.35;;;3.88;;
33505;SDS011;19843;51.040;13.782;2023-11-22T12:13:18;7.60;;;4.22;;
33505;SDS011;19843;51.040;13.782;2023-11-22T12:15:49;7.47;;;4.40;;
33505;SDS011;19843;51.040;13.782;2023-11-22T12:18:18;7.45;;;4.32;;
33505;SDS011;19843;51.040;13.782;2023-11-22T12:20:53;6.97;;;3.85;;
33505;SDS011;19843;51.040;13.782;2023-11-22T12:23:22;7.57;;;3.95;;
33505;SDS011;19843;51.040;13.782;2023-11-22T12:25:53;8.38;;;4.20;;
33505;SDS011;19843;51.040;13.782;2023-11-22T12:28:22;7.15;;;3.72;;
33505;SDS011;19843;51.040;13.782;2023-11-22T12:30:53;7.93;;;3.63;;
33505;SDS011;19843;51.040;13.782;2023-11-22T12:33:21;7.18;;;3.92;;
33505;SDS011;19843;51.040;13.782;2023-11-22T12:35:49;5.65;;;3.42;;
33505;SDS011;19843;51.040;13.782;2023-11-22T12:38:16;5.53;;;4.22;;
33505;SDS011;19843;51.040;13.782;2023-11-22T12:40:44;6.95;;;3.30;;
33505;SDS011;19843;51.040;13.782;2023-11-22T12:43:13;5.60;;;3.67;;
33505;SDS011;19843;51.040;13.782;2023-11-22T12:45:41;5.63;;;4.15;;
33505;SDS011;19843;51.040;13.782;2023-11-22T12:48:22;7.97;;;4.43;;
33505;SDS011;19843;51.040;13.782;2023-11-22T12:50:52;6.88;;;3.25;;
33505;SDS011;19843;51.040;13.782;2023-11-22T12:53:20;6.75;;;4.72;;
33505;SDS011;19843;51.040;13.782;2023-11-22T12:55:49;8.65;;;4.53;;
33505;SDS011;19843;51.040;13.782;2023-11-22T12:58:18;5.00;;;3.58;;
33505;SDS011;19843;51.040;13.782;2023-11-22T13:00:47;6.82;;;3.80;;
33505;SDS011;19843;51.040;13.782;2023-11-22T13:03:17;7.45;;;4.43;;
33505;SDS011;19843;51.040;13.782;2023-11-22T13:05:46;6.78;;;4.30;;
33505;SDS011;19843;51.040;13.782;2023-11-22T13:08:14;6.78;;;3.80;;
33505;SDS011;19843;51.040;13.782;2023-11-22T13:10:43;6.70;;;4.05;;
33505;SDS011;19843;51.040;13.782;2023-11-22T13:13:12;5.55;;;4.15;;
33505;SDS011;19843;51.040;13.782;2023-11-22T13:15:40;5.85;;;3.60;;
33505;SDS011;19843;51.040;13.782;2023-11-22T13:18:08;6.07;;;4.07;;
33505;SDS011;19843;51.040;13.782;2023-11-22T13:20:36;5.40;;;3.70;;
33505;SDS011;19843;51.040;13.782;2023-11-22T13:23:06;6.60;;;3.85;;
33505;SDS011;19843;51.040;13.782;2023-11-22T13:25:34;7.47;;;3.90;;
33505;SDS011;19843;51.040;13.782;2023-11-22T13:28:03;9.63;;;4.43;;
33505;SDS011;19843;51.040;13.782;2023-11-22T13:30:33;5.82;;;3.53;;
33505;SDS011;19843;51.040;13.782;2023-11-22T13:33:01;7.47;;;3.95;;
33505;SDS011;19843;51.040;13.782;2023-11-22T13:35:29;6.18;;;3.65;;
33505;SDS011;19843;51.040;13.782;2023-11-22T13:37:58;8.98;;;5.18;;
33505;SDS011;19843;51.040;13.782;2023-11-22T13:40:29;7.63;;;6.05;;
33505;SDS011;19843;51.040;13.782;2023-11-22T13:42:57;5.50;;;3.88;;
33505;SDS011;19843;51.040;13.782;2023-11-22T13:45:25;8.73;;;4.18;;
33505;SDS011;19843;51.040;13.782;2023-11-22T13:47:53;5.45;;;3.63;;
33505;SDS011;19843;51.040;13.782;2023-11-22T13:50:24;7.82;;;5.88;;
33505;SDS011;19843;51.040;13.782;2023-11-22T13:52:53;7.38;;;4.45;;
33505;SDS011;19843;51.040;13.782;2023-11-22T13:55:22;5.75;;;3.55;;
33505;SDS011;19843;51.040;13.782;2023-11-22T13:57:52;6.43;;;3.80;;
33505;SDS011;19843;51.040;13.782;2023-11-22T14:00:21;6.88;;;4.72;;
33505;SDS011;19843;51.040;13.782;2023-11-22T14:02:51;6.43;;;4.25;;
33505;SDS011;19843;51.040;13.782;2023-11-22T14:05:22;9.13;;;3.53;;
33505;SDS011;19843;51.040;13.782;2023-11-22T14:07:50;4.55;;;3.58;;
33505;SDS011;19843;51.040;13.782;2023-11-22T14:10:18;6.55;;;3.92;;
33505;SDS011;19843;51.040;13.782;2023-11-22T14:12:48;7.05;;;3.70;;
33505;SDS011;19843;51.040;13.782;2023-11-22T14:15:18;8.43;;;4.45;;
33505;SDS011;19843;51.040;13.782;2023-11-22T14:17:46;7.07;;;4.15;;
33505;SDS011;19843;51.040;13.782;2023-11-22T14:20:17;5.47;;;3.47;;
33505;SDS011;19843;51.040;13.782;2023-11-22T14:22:45;8.73;;;4.82;;
33505;SDS011;19843;51.040;13.782;2023-11-22T14:25:12;5.60;;;3.92;;
33505;SDS011;19843;51.040;13.782;2023-11-22T14:27:43;9.27;;;5.18;;
33505;SDS011;19843;51.040;13.782;2023-11-22T14:30:12;7.30;;;3.80;;
33505;SDS011;19843;51.040;13.782;2023-11-22T14:32:44;5.85;;;4.10;;
33505;SDS011;19843;51.040;13.782;2023-11-22T14:35:12;10.95;;;4.22;;